Time;durP1;ratioP1;P1;durP2;ratioP2;P2;SDS_P1;SDS_P2;PMS_P1;PMS_P2;Temp;Humidity;BMP_temperature;BMP_pressure;BME280_temperature;BME280_humidity;BME280_pressure;Samples;Min_cycle;Max_cycle;Signal;HPM_P1;HPM_P2
2023/09/16 00:01:44;;;;;;;;;;;15.10;99.90;;;;;;5092092;28;19921;-57
2023/09/16 00:04:11;;;;;;;;;;;15.10;99.90;;;;;;5092147;28;19963;-55
2023/09/16 00:06:36;;;;;;;;;;;15.00;99.90;;;;;;5091883;28;19920;-57
2023/09/16 00:09:02;;;;;;;;;;;15.10;99.90;;;;;;5096587;28;20460;-57
2023/09/16 00:11:29;;;;;;;;;;;15.00;99.90;;;;;;5096140;28;19920;-57
2023/09/16 00:13:54;;;;;;;;;;;15.00;99.90;;;;;;5086910;28;19927;-57
2023/09/16 00:16:20;;;;;;;;;;;15.00;99.90;;;;;;5096207;28;20335;-56
2023/09/16 00:18:46;;;;;;;;;;;14.90;99.90;;;;;;5095530;28;19924;-57
2023/09/16 00:21:11;;;;;;;;;;;14.90;99.90;;;;;;5095815;28;19929;-57
2023/09/16 00:23:37;;;;;;;;;;;14.90;99.90;;;;;;5096091;28;19982;-57
2023/09/16 00:26:03;;;;;;;;;;;14.90;99.90;;;;;;5095945;28;20321;-58
2023/09/16 00:28:30;;;;;;;;;;;14.80;99.90;;;;;;5096025;28;19927;-58
2023/09/16 00:30:55;;;;;;;;;;;14.80;99.90;;;;;;5096002;28;19920;-57
2023/09/16 00:33:21;;;;;;;;;;;14.90;99.90;;;;;;5095752;28;20093;-57
2023/09/16 00:35:46;;;;;;;;;;;14.80;99.90;;;;;;5095804;28;20255;-57
2023/09/16 00:38:15;;;;;;;;;;;14.80;99.90;;;;;;5095463;28;19962;-58
2023/09/16 00:40:41;;;;;;;;;;;14.80;99.90;;;;;;5095354;28;19920;-57
2023/09/16 00:43:06;;;;;;;;;;;14.70;99.90;;;;;;5095332;28;19920;-56
2023/09/16 00:45:33;;;;;;;;;;;14.70;99.90;;;;;;5077312;28;19967;-57
2023/09/16 00:47:59;;;;;;;;;;;14.70;99.90;;;;;;5095298;28;20331;-57
2023/09/16 00:50:25;;;;;;;;;;;14.70;99.90;;;;;;5072348;28;19921;-57
2023/09/16 00:52:52;;;;;;;;;;;14.70;99.90;;;;;;5075110;28;19967;-57
2023/09/16 00:55:17;;;;;;;;;;;14.60;99.90;;;;;;5074676;28;19920;-57
2023/09/16 00:57:46;;;;;;;;;;;14.60;99.90;;;;;;5075008;28;19924;-56
2023/09/16 01:00:12;;;;;;;;;;;14.50;99.90;;;;;;5074985;28;19925;-57
2023/09/16 01:02:37;;;;;;;;;;;14.50;99.90;;;;;;5075013;28;19990;-57
2023/09/16 01:05:04;;;;;;;;;;;14.50;99.90;;;;;;5074806;28;19924;-56
2023/09/16 01:07:30;;;;;;;;;;;14.50;99.90;;;;;;5074781;28;20295;-57
2023/09/16 01:09:55;;;;;;;;;;;14.60;99.90;;;;;;5074970;28;19935;-57
2023/09/16 01:12:21;;;;;;;;;;;14.70;99.90;;;;;;5074649;28;19928;-57
2023/09/16 01:14:47;;;;;;;;;;;14.60;99.90;;;;;;5074937;28;19926;-57
2023/09/16 01:17:21;;;;;;;;;;;14.50;99.90;;;;;;5074552;28;20378;-58
2023/09/16 01:19:52;;;;;;;;;;;14.50;99.90;;;;;;5073606;28;20087;-57
2023/09/16 01:22:18;;;;;;;;;;;14.50;99.90;;;;;;5088778;28;19924;-56
2023/09/16 01:24:50;;;;;;;;;;;14.50;99.90;;;;;;5095050;28;19999;-56
2023/09/16 01:27:16;;;;;;;;;;;14.50;99.90;;;;;;5094599;28;20396;-58
2023/09/16 01:29:41;;;;;;;;;;;14.40;99.90;;;;;;5094514;28;19920;-57
2023/09/16 01:32:08;;;;;;;;;;;14.40;99.90;;;;;;5094760;28;20007;-57
2023/09/16 01:34:40;;;;;;;;;;;14.40;99.90;;;;;;5094640;28;19931;-57
2023/09/16 01:37:06;;;;;;;;;;;14.50;99.90;;;;;;5094670;28;19920;-57
2023/09/16 01:39:32;;;;;;;;;;;14.40;99.90;;;;;;5094381;28;19924;-57
2023/09/16 01:41:58;;;;;;;;;;;14.40;99.90;;;;;;5094575;28;19942;-57
2023/09/16 01:44:24;;;;;;;;;;;14.30;99.90;;;;;;5094612;28;20341;-57
2023/09/16 01:46:53;;;;;;;;;;;14.30;99.90;;;;;;5094337;28;19963;-57
2023/09/16 01:49:19;;;;;;;;;;;14.30;99.90;;;;;;5094224;28;19994;-58
2023/09/16 01:51:44;;;;;;;;;;;14.30;99.90;;;;;;5076066;28;20366;-56
2023/09/16 01:54:10;;;;;;;;;;;14.30;99.90;;;;;;5093978;28;19924;-57
2023/09/16 01:56:36;;;;;;;;;;;14.30;99.90;;;;;;5093914;28;19974;-57
2023/09/16 01:59:01;;;;;;;;;;;14.30;99.90;;;;;;5094131;28;19924;-57
2023/09/16 02:01:27;;;;;;;;;;;14.30;99.90;;;;;;5094171;28;20251;-57
2023/09/16 02:03:52;;;;;;;;;;;14.20;99.90;;;;;;5094016;28;20267;-57
2023/09/16 02:06:18;;;;;;;;;;;14.20;99.90;;;;;;5094135;28;19927;-56
2023/09/16 02:08:43;;;;;;;;;;;14.10;99.90;;;;;;5094014;28;20599;-58
2023/09/16 02:11:09;;;;;;;;;;;14.10;99.90;;;;;;5075617;28;20415;-58
2023/09/16 02:13:37;;;;;;;;;;;14.10;99.90;;;;;;5093686;28;19924;-57
2023/09/16 02:16:03;;;;;;;;;;;14.00;99.90;;;;;;5075785;28;20328;-57
2023/09/16 02:18:28;;;;;;;;;;;14.00;99.90;;;;;;5093848;28;19977;-57
2023/09/16 02:20:57;;;;;;;;;;;13.90;99.90;;;;;;5075816;28;19928;-58
2023/09/16 02:23:22;;;;;;;;;;;14.00;99.90;;;;;;5093618;28;19920;-57
2023/09/16 02:25:48;;;;;;;;;;;13.90;99.90;;;;;;5093576;28;19920;-58
2023/09/16 02:28:14;;;;;;;;;;;14.00;99.90;;;;;;5093613;28;19927;-57
2023/09/16 02:30:39;;;;;;;;;;;14.00;99.90;;;;;;5093483;28;20300;-58
2023/09/16 02:33:05;;;;;;;;;;;14.00;99.90;;;;;;5093127;28;19920;-58
2023/09/16 02:35:30;;;;;;;;;;;13.90;99.90;;;;;;5093482;28;20328;-58
2023/09/16 02:37:58;;;;;;;;;;;13.90;99.90;;;;;;5093329;28;19920;-57
2023/09/16 02:40:24;;;;;;;;;;;13.80;99.90;;;;;;5075446;28;20356;-58
2023/09/16 02:42:50;;;;;;;;;;;13.80;99.90;;;;;;5093206;28;20008;-56
2023/09/16 02:45:15;;;;;;;;;;;13.80;99.90;;;;;;5093553;28;20341;-57
2023/09/16 02:47:41;;;;;;;;;;;13.80;99.90;;;;;;5092787;28;19931;-57
2023/09/16 02:50:07;;;;;;;;;;;13.80;99.90;;;;;;5063950;28;19924;-57
2023/09/16 02:52:32;;;;;;;;;;;13.80;99.90;;;;;;5093466;28;19942;-57
2023/09/16 02:54:58;;;;;;;;;;;13.70;99.90;;;;;;5092826;28;20003;-57
2023/09/16 02:57:23;;;;;;;;;;;13.70;99.90;;;;;;5093179;28;19967;-58
2023/09/16 02:59:49;;;;;;;;;;;13.70;99.90;;;;;;5093359;28;20333;-57
2023/09/16 03:02:15;;;;;;;;;;;13.70;99.90;;;;;;5074704;28;19967;-58
2023/09/16 03:04:41;;;;;;;;;;;13.70;99.90;;;;;;5093257;28;20413;-59
2023/09/16 03:07:07;;;;;;;;;;;13.70;99.90;;;;;;5075155;28;19920;-60
2023/09/16 03:09:32;;;;;;;;;;;13.70;99.90;;;;;;5093891;28;19924;-58
2023/09/16 03:11:58;;;;;;;;;;;13.60;99.90;;;;;;5093729;28;20417;-59
2023/09/16 03:14:23;;;;;;;;;;;13.80;99.90;;;;;;5075450;28;19920;-59
2023/09/16 03:16:49;;;;;;;;;;;13.70;99.90;;;;;;5075315;28;19920;-59
2023/09/16 03:19:16;;;;;;;;;;;13.60;99.90;;;;;;5093259;28;20015;-60
2023/09/16 03:21:42;;;;;;;;;;;13.70;99.90;;;;;;5093272;28;19920;-59
2023/09/16 03:24:07;;;;;;;;;;;13.70;99.90;;;;;;5075665;28;19920;-59
2023/09/16 03:26:33;;;;;;;;;;;13.70;99.90;;;;;;5093287;28;20286;-58
2023/09/16 03:28:58;;;;;;;;;;;13.60;99.90;;;;;;5074963;28;19920;-59
2023/09/16 03:31:24;;;;;;;;;;;13.60;99.90;;;;;;5093150;28;19935;-59
2023/09/16 03:33:49;;;;;;;;;;;13.60;99.90;;;;;;5093526;28;19931;-59
2023/09/16 03:36:15;;;;;;;;;;;13.50;99.90;;;;;;5093382;28;19920;-59
2023/09/16 03:38:48;;;;;;;;;;;13.60;99.90;;;;;;5093617;28;20366;-59
2023/09/16 03:41:15;;;;;;;;;;;13.60;99.90;;;;;;5066121;28;20518;-59
2023/09/16 03:43:40;;;;;;;;;;;13.50;99.90;;;;;;5093424;28;20362;-59
2023/09/16 03:46:06;;;;;;;;;;;13.50;99.90;;;;;;5089022;28;19920;-60
2023/09/16 03:48:32;;;;;;;;;;;13.50;99.90;;;;;;5075718;28;19967;-59
2023/09/16 03:50:57;;;;;;;;;;;13.40;99.90;;;;;;5068434;28;20007;-60
2023/09/16 03:53:25;;;;;;;;;;;13.40;99.90;;;;;;5072952;28;19920;-59
2023/09/16 03:55:54;;;;;;;;;;;13.40;99.90;;;;;;5067840;28;20284;-60
2023/09/16 03:58:19;;;;;;;;;;;13.30;99.90;;;;;;5062153;28;19929;-59
2023/09/16 04:00:45;;;;;;;;;;;13.20;99.90;;;;;;5067133;28;19987;-58
2023/09/16 04:03:14;;;;;;;;;;;13.20;99.90;;;;;;5069770;28;19932;-59
2023/09/16 04:05:39;;;;;;;;;;;13.30;99.90;;;;;;5070923;28;20367;-59
2023/09/16 04:08:05;;;;;;;;;;;13.30;99.90;;;;;;5072634;28;20002;-58
2023/09/16 04:10:30;;;;;;;;;;;13.30;99.90;;;;;;5071054;28;19921;-59
2023/09/16 04:12:56;;;;;;;;;;;13.20;99.90;;;;;;5069032;28;19920;-59
2023/09/16 04:15:21;;;;;;;;;;;13.20;99.90;;;;;;5072513;28;19920;-59
2023/09/16 04:17:48;;;;;;;;;;;13.20;99.90;;;;;;5072654;28;19920;-59
2023/09/16 04:20:14;;;;;;;;;;;13.20;99.90;;;;;;5072390;28;20007;-59
2023/09/16 04:22:39;;;;;;;;;;;13.20;99.90;;;;;;5089968;28;20497;-59
2023/09/16 04:25:05;;;;;;;;;;;13.20;99.90;;;;;;5092674;28;19920;-59
2023/09/16 04:27:31;;;;;;;;;;;13.20;99.90;;;;;;5090034;28;19999;-60
2023/09/16 04:29:56;;;;;;;;;;;13.20;99.90;;;;;;5093077;28;19920;-59
2023/09/16 04:32:22;;;;;;;;;;;13.10;99.90;;;;;;5090443;28;19928;-60
2023/09/16 04:34:47;;;;;;;;;;;13.20;99.90;;;;;;5085943;28;20264;-60
2023/09/16 04:37:14;;;;;;;;;;;13.10;99.90;;;;;;5066947;28;20532;-58
2023/09/16 04:39:39;;;;;;;;;;;13.20;99.90;;;;;;5070189;28;21267;-59
2023/09/16 04:42:05;;;;;;;;;;;13.10;99.90;;;;;;5077303;28;20359;-58
2023/09/16 04:44:30;;;;;;;;;;;13.00;99.90;;;;;;5084349;28;19970;-59
2023/09/16 04:46:56;;;;;;;;;;;13.10;99.90;;;;;;5092791;28;19947;-59
2023/09/16 04:49:22;;;;;;;;;;;12.90;99.90;;;;;;5063518;28;19939;-59
2023/09/16 04:51:48;;;;;;;;;;;12.90;99.90;;;;;;5072244;28;19921;-58
2023/09/16 04:54:15;;;;;;;;;;;12.90;99.90;;;;;;5073557;28;20428;-58
2023/09/16 04:56:41;;;;;;;;;;;13.00;99.90;;;;;;5075184;28;20406;-59
2023/09/16 04:59:06;;;;;;;;;;;13.00;99.90;;;;;;5057713;28;20015;-58
2023/09/16 05:01:32;;;;;;;;;;;13.10;99.90;;;;;;5075535;28;19992;-59
2023/09/16 05:03:58;;;;;;;;;;;13.10;99.90;;;;;;5075709;28;19920;-60
2023/09/16 05:06:24;;;;;;;;;;;13.10;99.90;;;;;;5057496;28;19971;-59
2023/09/16 05:08:49;;;;;;;;;;;13.10;99.90;;;;;;5075201;28;19924;-59
2023/09/16 05:11:15;;;;;;;;;;;13.10;99.90;;;;;;5075481;28;19920;-59
2023/09/16 05:13:41;;;;;;;;;;;13.10;99.90;;;;;;5075254;28;20449;-59
2023/09/16 05:16:08;;;;;;;;;;;13.10;99.90;;;;;;5075354;28;19920;-59
2023/09/16 05:18:33;;;;;;;;;;;13.10;99.90;;;;;;5075092;28;19924;-59
2023/09/16 05:20:59;;;;;;;;;;;13.10;99.90;;;;;;5074852;28;20033;-59
2023/09/16 05:23:24;;;;;;;;;;;13.00;99.90;;;;;;5074946;28;19920;-59
2023/09/16 05:25:50;;;;;;;;;;;12.90;99.90;;;;;;5075099;28;19932;-59
2023/09/16 05:28:16;;;;;;;;;;;13.00;99.90;;;;;;5074849;28;20329;-59
2023/09/16 05:30:42;;;;;;;;;;;13.00;99.90;;;;;;5075114;28;20011;-59
2023/09/16 05:33:09;;;;;;;;;;;12.90;99.90;;;;;;5074987;28;20048;-59
2023/09/16 05:35:34;;;;;;;;;;;12.90;99.90;;;;;;5074912;28;19924;-59
2023/09/16 05:38:00;;;;;;;;;;;13.00;99.90;;;;;;5074678;28;19921;-59
2023/09/16 05:40:25;;;;;;;;;;;13.00;99.90;;;;;;5074613;28;19966;-59
2023/09/16 05:42:51;;;;;;;;;;;13.10;99.90;;;;;;5074463;28;19970;-60
2023/09/16 05:45:17;;;;;;;;;;;13.10;99.90;;;;;;5074626;28;19967;-60
2023/09/16 05:47:44;;;;;;;;;;;13.20;99.90;;;;;;5074688;28;19920;-59
2023/09/16 05:50:11;;;;;;;;;;;13.30;99.90;;;;;;5089642;28;20400;-59
2023/09/16 05:52:37;;;;;;;;;;;13.30;99.90;;;;;;5094372;28;19920;-59
2023/09/16 05:55:02;;;;;;;;;;;13.40;99.90;;;;;;5094735;28;19924;-59
2023/09/16 05:57:28;;;;;;;;;;;13.50;99.90;;;;;;5094606;28;19924;-59
2023/09/16 05:59:54;;;;;;;;;;;13.60;99.90;;;;;;5095028;28;19970;-59
2023/09/16 06:02:19;;;;;;;;;;;13.70;99.90;;;;;;5094297;28;19931;-59
2023/09/16 06:04:45;;;;;;;;;;;13.90;99.90;;;;;;5094432;28;19945;-59
2023/09/16 06:07:10;;;;;;;;;;;14.00;99.90;;;;;;5094611;28;19920;-59
2023/09/16 06:09:36;;;;;;;;;;;14.10;99.90;;;;;;5076806;28;20285;-59
2023/09/16 06:12:01;;;;;;;;;;;14.30;99.90;;;;;;5094516;28;20292;-59
2023/09/16 06:14:27;;;;;;;;;;;14.40;99.90;;;;;;5076545;28;20323;-59
2023/09/16 06:16:52;;;;;;;;;;;14.60;99.90;;;;;;5094245;28;19943;-59
2023/09/16 06:19:54;;;;;;;;;;;14.70;99.90;;;;;;5093918;28;19925;-58
2023/09/16 06:22:38;;;;;;;;;;;14.80;99.90;;;;;;5059859;28;19921;-60
2023/09/16 06:25:03;;;;;;;;;;;15.20;99.90;;;;;;5045846;28;19978;-59
2023/09/16 06:27:29;;;;;;;;;;;15.40;99.90;;;;;;5059465;28;19920;-59
2023/09/16 06:29:55;;;;;;;;;;;15.50;99.90;;;;;;5071759;28;20264;-59
2023/09/16 06:32:21;;;;;;;;;;;15.70;99.90;;;;;;5071486;28;20031;-58
2023/09/16 06:34:47;;;;;;;;;;;15.90;99.90;;;;;;5071991;28;20012;-58
2023/09/16 06:37:12;;;;;;;;;;;16.10;99.90;;;;;;5071751;28;20376;-59
2023/09/16 06:39:39;;;;;;;;;;;16.30;99.90;;;;;;5068616;28;19933;-58
2023/09/16 06:42:05;;;;;;;;;;;16.60;99.90;;;;;;5064729;28;19924;-58
2023/09/16 06:44:31;;;;;;;;;;;16.80;99.90;;;;;;5071335;28;19943;-59
2023/09/16 06:46:56;;;;;;;;;;;17.10;99.90;;;;;;5071698;28;19920;-58
2023/09/16 06:49:22;;;;;;;;;;;17.30;99.90;;;;;;5071304;28;19947;-59
2023/09/16 06:51:48;;;;;;;;;;;17.40;99.90;;;;;;5071340;28;20355;-58
2023/09/16 06:54:13;;;;;;;;;;;17.70;99.90;;;;;;5088280;28;20020;-58
2023/09/16 06:56:39;;;;;;;;;;;17.90;99.90;;;;;;5081903;28;19966;-58
2023/09/16 06:59:04;;;;;;;;;;;18.10;99.90;;;;;;5075038;28;20386;-58
2023/09/16 07:01:30;;;;;;;;;;;18.40;99.90;;;;;;5082605;28;20383;-58
2023/09/16 07:03:57;;;;;;;;;;;18.60;99.90;;;;;;5093590;28;20263;-59
2023/09/16 07:06:25;;;;;;;;;;;18.90;99.90;;;;;;5093632;28;19920;-58
2023/09/16 07:08:51;;;;;;;;;;;19.20;99.90;;;;;;5093491;28;20023;-59
2023/09/16 07:11:17;;;;;;;;;;;19.30;99.90;;;;;;5093773;28;19920;-59
2023/09/16 07:13:43;;;;;;;;;;;19.60;99.90;;;;;;5094381;28;19989;-60
2023/09/16 07:16:11;;;;;;;;;;;19.80;99.90;;;;;;5093444;28;20362;-59
2023/09/16 07:18:36;;;;;;;;;;;20.00;99.90;;;;;;5093349;28;19924;-59
2023/09/16 07:21:02;;;;;;;;;;;20.30;99.90;;;;;;5093632;28;19919;-59
2023/09/16 07:23:27;;;;;;;;;;;20.40;99.90;;;;;;5093376;28;19920;-59
2023/09/16 07:25:57;;;;;;;;;;;20.60;99.90;;;;;;5093437;28;19920;-58
2023/09/16 07:28:23;;;;;;;;;;;20.80;99.90;;;;;;5093078;28;19947;-60
2023/09/16 07:30:48;;;;;;;;;;;21.00;99.90;;;;;;5092762;28;19927;-60
2023/09/16 07:33:14;;;;;;;;;;;21.20;99.90;;;;;;5093231;28;20286;-60
2023/09/16 07:35:39;;;;;;;;;;;21.50;99.90;;;;;;5092799;28;19924;-59
2023/09/16 07:38:05;;;;;;;;;;;21.60;99.90;;;;;;5093277;28;19924;-60
2023/09/16 07:40:32;;;;;;;;;;;21.80;99.90;;;;;;5093121;28;19924;-60
2023/09/16 07:42:58;;;;;;;;;;;22.00;99.90;;;;;;5093500;28;19921;-60
2023/09/16 07:45:24;;;;;;;;;;;22.20;99.90;;;;;;5058721;28;19926;-60
2023/09/16 07:47:49;;;;;;;;;;;22.50;99.90;;;;;;5094396;28;20433;-59
2023/09/16 07:50:15;;;;;;;;;;;22.60;99.90;;;;;;5071591;28;19940;-60
2023/09/16 07:52:42;;;;;;;;;;;22.80;99.90;;;;;;5077963;28;19921;-60
2023/09/16 07:55:07;;;;;;;;;;;23.10;99.90;;;;;;5072470;28;19921;-60
2023/09/16 07:57:33;;;;;;;;;;;23.00;99.90;;;;;;5072917;28;20019;-57
2023/09/16 07:59:58;;;;;;;;;;;23.30;99.90;;;;;;5071464;28;20337;-57
2023/09/16 08:02:24;;;;;;;;;;;23.60;99.90;;;;;;5071693;28;19921;-57
2023/09/16 08:04:50;;;;;;;;;;;23.80;99.90;;;;;;5071670;28;19928;-58
2023/09/16 08:07:15;;;;;;;;;;;23.70;99.90;;;;;;5055402;28;19927;-58
2023/09/16 08:09:41;;;;;;;;;;;23.70;99.90;;;;;;5055962;28;19920;-57
2023/09/16 08:12:06;;;;;;;;;;;23.90;99.90;;;;;;5053883;28;19928;-58
2023/09/16 08:14:32;;;;;;;;;;;24.10;99.90;;;;;;5051006;28;19921;-58
2023/09/16 08:17:02;;;;;;;;;;;24.20;99.90;;;;;;5056206;28;19983;-57
2023/09/16 08:19:28;;;;;;;;;;;24.40;99.90;;;;;;5051375;28;19924;-57
2023/09/16 08:21:53;;;;;;;;;;;24.60;99.90;;;;;;5061296;28;19943;-57
2023/09/16 08:24:19;;;;;;;;;;;24.90;99.90;;;;;;5069835;28;19947;-58
2023/09/16 08:26:44;;;;;;;;;;;24.90;99.90;;;;;;5071378;28;20043;-57
2023/09/16 08:29:10;;;;;;;;;;;25.20;99.90;;;;;;5074651;28;20035;-55
2023/09/16 08:31:36;;;;;;;;;;;25.30;99.90;;;;;;5075135;28;19920;-56
2023/09/16 08:34:01;;;;;;;;;;;25.40;99.90;;;;;;5076027;28;19927;-58
2023/09/16 08:36:27;;;;;;;;;;;25.50;99.90;;;;;;5075208;28;19960;-57
2023/09/16 08:38:53;;;;;;;;;;;25.70;99.90;;;;;;5075040;28;20302;-57
2023/09/16 08:41:27;;;;;;;;;;;25.70;99.90;;;;;;5074834;28;20023;-57
2023/09/16 08:43:56;;;;;;;;;;;25.60;99.90;;;;;;5075641;28;20040;-57
2023/09/16 08:46:22;;;;;;;;;;;25.80;99.90;;;;;;5074964;28;19999;-57
2023/09/16 08:48:49;;;;;;;;;;;25.90;99.90;;;;;;5078808;28;20015;-58
2023/09/16 08:51:16;;;;;;;;;;;25.80;99.90;;;;;;5088835;28;19924;-58
2023/09/16 08:53:42;;;;;;;;;;;25.90;99.90;;;;;;5094916;28;20370;-58
2023/09/16 08:56:08;;;;;;;;;;;26.10;99.90;;;;;;5095356;28;19931;-57
2023/09/16 08:58:35;;;;;;;;;;;26.10;99.90;;;;;;5079729;28;19928;-57
2023/09/16 09:01:02;;;;;;;;;;;26.20;99.90;;;;;;5082843;28;20373;-58
2023/09/16 09:03:37;;;;;;;;;;;26.30;99.90;;;;;;5079668;28;19920;-59
2023/09/16 09:06:05;;;;;;;;;;;26.40;99.90;;;;;;5076599;28;19926;-58
2023/09/16 09:08:32;;;;;;;;;;;26.40;99.90;;;;;;5095253;28;20298;-58
2023/09/16 09:10:58;;;;;;;;;;;26.60;99.90;;;;;;5096338;28;20003;-58
2023/09/16 09:13:24;;;;;;;;;;;26.70;99.90;;;;;;5068879;28;19967;-57
2023/09/16 09:15:51;;;;;;;;;;;26.60;99.90;;;;;;5082285;28;20050;-57
2023/09/16 09:18:17;;;;;;;;;;;26.80;99.90;;;;;;5095304;28;19970;-57
2023/09/16 09:20:43;;;;;;;;;;;26.90;99.90;;;;;;5100089;28;19979;-60
2023/09/16 09:23:10;;;;;;;;;;;26.90;99.90;;;;;;5097227;28;19924;-60
2023/09/16 09:25:36;;;;;;;;;;;26.90;99.90;;;;;;5095026;28;20058;-59
2023/09/16 09:28:02;;;;;;;;;;;26.60;99.90;;;;;;5086957;28;19928;-59
2023/09/16 09:30:29;;;;;;;;;;;26.40;99.90;;;;;;5094731;28;20009;-59
2023/09/16 09:32:56;;;;;;;;;;;26.30;99.90;;;;;;5079571;28;20134;-58
2023/09/16 09:35:23;;;;;;;;;;;26.10;99.90;;;;;;5076067;28;19921;-58
2023/09/16 09:37:49;;;;;;;;;;;26.00;99.90;;;;;;5073892;28;19921;-59
2023/09/16 09:40:14;;;;;;;;;;;25.80;99.90;;;;;;5083748;28;20407;-57
2023/09/16 09:42:40;;;;;;;;;;;25.50;99.90;;;;;;5094415;28;19928;-58
2023/09/16 09:45:06;;;;;;;;;;;25.30;99.90;;;;;;5094007;28;20317;-57
2023/09/16 09:47:31;;;;;;;;;;;25.10;99.90;;;;;;5094217;28;19920;-58
2023/09/16 09:49:57;;;;;;;;;;;24.90;99.90;;;;;;5094688;28;19924;-57
2023/09/16 09:52:23;;;;;;;;;;;24.80;99.90;;;;;;5094017;28;19950;-57
2023/09/16 09:54:52;;;;;;;;;;;24.70;99.90;;;;;;5093701;28;20255;-58
2023/09/16 09:57:18;;;;;;;;;;;24.50;99.90;;;;;;5088744;28;20289;-57
2023/09/16 09:59:44;;;;;;;;;;;24.50;99.90;;;;;;5092767;28;19924;-57
2023/09/16 10:02:09;;;;;;;;;;;24.40;99.90;;;;;;5090630;28;19921;-57
2023/09/16 10:04:35;;;;;;;;;;;24.40;99.90;;;;;;5091004;28;20334;-57
2023/09/16 10:07:00;;;;;;;;;;;24.30;99.90;;;;;;5094373;28;19927;-57
2023/09/16 10:09:26;;;;;;;;;;;24.40;99.90;;;;;;5094624;28;19969;-56
2023/09/16 10:11:51;;;;;;;;;;;24.40;99.90;;;;;;5096972;28;20013;-59
2023/09/16 10:14:18;;;;;;;;;;;24.30;99.90;;;;;;5094096;28;20374;-58
2023/09/16 10:16:45;;;;;;;;;;;24.30;99.90;;;;;;5094290;28;19920;-59
2023/09/16 10:19:10;;;;;;;;;;;24.40;99.90;;;;;;5094426;28;19928;-59
2023/09/16 10:21:37;;;;;;;;;;;24.50;99.90;;;;;;5093923;28;19920;-59
2023/09/16 10:24:03;;;;;;;;;;;24.50;99.90;;;;;;5094244;28;19920;-60
2023/09/16 10:26:28;;;;;;;;;;;24.40;99.90;;;;;;5094187;28;19957;-60
2023/09/16 10:28:54;;;;;;;;;;;24.40;99.90;;;;;;5088318;28;20325;-59
2023/09/16 10:31:20;;;;;;;;;;;24.40;99.90;;;;;;5094132;28;19928;-59
2023/09/16 10:33:46;;;;;;;;;;;24.40;99.90;;;;;;5087843;28;19975;-57
2023/09/16 10:36:12;;;;;;;;;;;24.40;99.90;;;;;;5093258;28;20362;-58
2023/09/16 10:38:38;;;;;;;;;;;24.40;99.90;;;;;;5093337;28;19924;-57
2023/09/16 10:41:07;;;;;;;;;;;24.50;99.90;;;;;;5093082;28;19927;-57
2023/09/16 10:43:33;;;;;;;;;;;24.40;99.90;;;;;;5093241;28;20286;-57
2023/09/16 10:45:59;;;;;;;;;;;24.40;99.90;;;;;;5093441;28;20266;-57
2023/09/16 10:48:24;;;;;;;;;;;24.40;99.90;;;;;;5092983;28;19982;-58
2023/09/16 10:50:53;;;;;;;;;;;24.40;99.90;;;;;;5092376;28;19943;-57
2023/09/16 10:53:22;;;;;;;;;;;24.40;99.90;;;;;;5093231;28;19973;-57
2023/09/16 10:55:48;;;;;;;;;;;24.40;99.90;;;;;;5093044;28;19963;-57
2023/09/16 10:58:34;;;;;;;;;;;24.50;99.90;;;;;;5088294;28;19971;-58
2023/09/16 11:01:01;;;;;;;;;;;24.50;99.90;;;;;;5092450;28;19924;-58
2023/09/16 11:03:29;;;;;;;;;;;24.50;99.90;;;;;;5087758;28;19946;-57
2023/09/16 11:05:57;;;;;;;;;;;24.50;99.90;;;;;;5092742;28;20035;-57
2023/09/16 11:08:23;;;;;;;;;;;24.50;99.90;;;;;;5093125;28;19959;-58
2023/09/16 11:10:49;;;;;;;;;;;24.50;99.90;;;;;;5093145;28;19927;-58
2023/09/16 11:13:15;;;;;;;;;;;24.60;99.90;;;;;;5092693;28;19920;-57
2023/09/16 11:15:41;;;;;;;;;;;24.60;99.90;;;;;;5092939;28;20015;-57
2023/09/16 11:18:10;;;;;;;;;;;24.70;99.90;;;;;;5094542;28;19911;-58
2023/09/16 11:20:37;;;;;;;;;;;24.70;99.90;;;;;;5092900;28;19924;-58
2023/09/16 11:23:05;;;;;;;;;;;24.70;99.90;;;;;;5092008;28;20400;-57
2023/09/16 11:25:35;;;;;;;;;;;24.80;99.90;;;;;;5092390;28;19920;-58
2023/09/16 11:28:02;;;;;;;;;;;24.90;99.90;;;;;;5084940;28;20413;-58
2023/09/16 11:30:29;;;;;;;;;;;25.10;99.90;;;;;;5092562;28;19920;-58
2023/09/16 11:32:55;;;;;;;;;;;25.20;99.90;;;;;;5084406;28;19930;-58
2023/09/16 11:35:21;;;;;;;;;;;25.30;99.90;;;;;;5092235;28;19920;-58
2023/09/16 11:37:46;;;;;;;;;;;25.50;99.90;;;;;;5092320;28;20289;-58
2023/09/16 11:40:13;;;;;;;;;;;25.60;99.90;;;;;;5092277;28;19954;-57
2023/09/16 11:42:39;;;;;;;;;;;25.60;99.90;;;;;;5092413;28;19920;-58
2023/09/16 11:45:04;;;;;;;;;;;25.70;99.90;;;;;;5092077;28;20352;-58
2023/09/16 11:47:31;;;;;;;;;;;25.70;99.90;;;;;;5092003;28;20344;-57
2023/09/16 11:49:56;;;;;;;;;;;25.60;99.90;;;;;;5091779;28;20396;-58
2023/09/16 11:52:22;;;;;;;;;;;25.50;99.90;;;;;;5092174;28;19920;-58
2023/09/16 11:54:48;;;;;;;;;;;25.50;99.90;;;;;;5073891;28;20009;-57
2023/09/16 11:57:14;;;;;;;;;;;25.40;99.90;;;;;;5085443;28;19920;-57
2023/09/16 11:59:40;;;;;;;;;;;25.30;99.90;;;;;;5086391;28;19931;-58
2023/09/16 12:02:06;;;;;;;;;;;25.20;99.90;;;;;;5091230;28;19920;-57
2023/09/16 12:04:34;;;;;;;;;;;25.10;99.90;;;;;;5095981;28;19945;-58
2023/09/16 12:07:00;;;;;;;;;;;25.10;99.90;;;;;;5096171;28;20006;-58
2023/09/16 12:09:27;;;;;;;;;;;25.00;99.90;;;;;;5096244;28;19956;-58
2023/09/16 12:11:53;;;;;;;;;;;24.90;99.90;;;;;;5096154;28;19986;-59
2023/09/16 12:14:18;;;;;;;;;;;24.80;99.90;;;;;;5096190;28;20358;-58
2023/09/16 12:16:44;;;;;;;;;;;24.70;99.90;;;;;;5096017;28;19920;-59
2023/09/16 12:19:10;;;;;;;;;;;24.80;99.90;;;;;;5095935;28;20365;-59
2023/09/16 12:21:35;;;;;;;;;;;24.90;99.90;;;;;;5096260;28;19924;-58
2023/09/16 12:24:01;;;;;;;;;;;24.90;99.90;;;;;;5095843;28;19928;-59
2023/09/16 12:26:26;;;;;;;;;;;25.00;99.90;;;;;;5094865;28;20015;-59
2023/09/16 12:28:52;;;;;;;;;;;24.90;99.90;;;;;;5088042;28;19920;-58
2023/09/16 12:31:21;;;;;;;;;;;24.90;99.90;;;;;;5095627;28;19951;-58
2023/09/16 12:33:50;;;;;;;;;;;24.90;99.90;;;;;;5086222;28;20321;-58
2023/09/16 12:36:17;;;;;;;;;;;24.90;99.90;;;;;;5096133;28;19962;-58
2023/09/16 12:38:43;;;;;;;;;;;24.90;99.90;;;;;;5095819;28;20453;-59
2023/09/16 12:41:09;;;;;;;;;;;24.90;99.90;;;;;;5095104;28;20370;-59
2023/09/16 12:43:35;;;;;;;;;;;24.90;99.90;;;;;;5095401;28;19942;-59
2023/09/16 12:46:02;;;;;;;;;;;24.90;99.90;;;;;;5097134;28;20095;-59
2023/09/16 12:48:29;;;;;;;;;;;24.80;99.90;;;;;;5077527;28;20007;-60
2023/09/16 12:50:54;;;;;;;;;;;24.70;99.90;;;;;;5095727;28;19939;-59
2023/09/16 12:53:20;;;;;;;;;;;24.60;99.90;;;;;;5096124;28;19928;-60
2023/09/16 12:55:52;;;;;;;;;;;24.40;99.90;;;;;;5096121;28;20015;-59
2023/09/16 12:58:20;;;;;;;;;;;24.40;99.90;;;;;;5094244;28;20336;-60
2023/09/16 13:00:47;;;;;;;;;;;24.40;99.90;;;;;;5077582;28;20274;-60
2023/09/16 13:03:14;;;;;;;;;;;24.50;99.90;;;;;;5093228;28;20384;-59
2023/09/16 13:05:39;;;;;;;;;;;24.70;99.90;;;;;;5095699;28;20294;-59
2023/09/16 13:08:05;;;;;;;;;;;24.80;99.90;;;;;;5077282;28;19928;-59
2023/09/16 13:10:31;;;;;;;;;;;24.70;99.90;;;;;;5095353;28;19989;-59
2023/09/16 13:12:57;;;;;;;;;;;24.70;99.90;;;;;;5090808;28;19924;-58
2023/09/16 13:15:23;;;;;;;;;;;24.70;99.90;;;;;;5093720;28;19927;-59
2023/09/16 13:17:55;;;;;;;;;;;24.80;99.90;;;;;;5094942;28;20453;-59
2023/09/16 13:20:21;;;;;;;;;;;24.90;99.90;;;;;;5095088;28;19924;-59
2023/09/16 13:22:53;;;;;;;;;;;25.00;99.90;;;;;;5060222;28;20239;-58
2023/09/16 13:25:29;;;;;;;;;;;25.00;99.90;;;;;;5095203;28;20369;-59
2023/09/16 13:28:05;;;;;;;;;;;25.00;99.90;;;;;;5084394;28;19973;-59
2023/09/16 13:30:33;;;;;;;;;;;24.90;99.90;;;;;;5095097;28;19966;-59
2023/09/16 13:32:58;;;;;;;;;;;24.80;99.90;;;;;;5094023;28;19939;-59
2023/09/16 13:35:24;;;;;;;;;;;24.70;99.90;;;;;;5084703;28;20291;-59
2023/09/16 13:37:49;;;;;;;;;;;24.80;99.90;;;;;;5087173;28;19958;-57
2023/09/16 13:40:15;;;;;;;;;;;24.90;99.90;;;;;;5081823;28;19924;-58
2023/09/16 13:42:42;;;;;;;;;;;24.90;99.90;;;;;;5046394;28;20325;-58
2023/09/16 13:45:08;;;;;;;;;;;24.90;99.90;;;;;;5081997;28;19924;-57
2023/09/16 13:47:33;;;;;;;;;;;24.90;99.90;;;;;;5090656;28;20014;-57
2023/09/16 13:49:59;;;;;;;;;;;24.90;99.90;;;;;;5065724;28;20027;-57
2023/09/16 13:52:25;;;;;;;;;;;24.90;99.90;;;;;;5065806;28;19943;-57
2023/09/16 13:54:50;;;;;;;;;;;24.90;99.90;;;;;;5070736;28;19986;-58
2023/09/16 13:57:16;;;;;;;;;;;24.80;99.90;;;;;;5071306;28;19924;-57
2023/09/16 13:59:41;;;;;;;;;;;24.80;99.90;;;;;;5065427;28;19931;-57
2023/09/16 14:02:09;;;;;;;;;;;24.70;99.90;;;;;;5068753;28;19985;-57
2023/09/16 14:04:35;;;;;;;;;;;24.60;99.90;;;;;;5061195;28;19921;-57
2023/09/16 14:07:00;;;;;;;;;;;24.40;99.90;;;;;;5065557;28;19926;-57
2023/09/16 14:09:26;;;;;;;;;;;24.40;99.90;;;;;;5058624;28;19921;-58
2023/09/16 14:11:51;;;;;;;;;;;24.30;99.90;;;;;;5061039;28;19921;-58